Richlandtown, Pennsylvania
Current Conditions -  °F | °C
As of 9:35 PM on Friday 21 Nov 2014 (Local Time) from KUKT Reporting Station
Clear Clear  
Wind Chill: 21°   Ceiling: Unl
Heat Index: 21°   Visibility: 10mi
Dew Point: 10°   Wind: 3mph
Humidity: 63%   Direction: 230°SW
Pressure: 30.49"   Gusts: NA
Location:  40.47°N, 75.32°W
Report Text: KUKT 220235Z AUTO 23003KT 10SM CLR M06/M12 A3049 RMK AO1
Loading
Personal Weather Stations






























Interactive Weather Map New forecast layout! Learn more

10-Day Weather Forecast

Advertisements
Track Severe Weather on mobile